Vb Ouragan — FIVA — position and weather

sailwx.info

Track history (hours):
 
Tides and Currents Weather Stations Pressure Air Temp Water Temp Dewpoint Dewpoint Depression Visibility Wind Speed Wind Dir Waves Ship Positions

Vb Ouragan

Last reported at 2018-May-21 09:00 UTC. Time now 2018-May-21 09:10 UTC.
Position N 47°18' W 002°09'.

Length 30 m; draft 5 m.

Type: Tug. MMSI: 228067800.

Date/timePositionNaut miles runAvg speedWind from/ knotsBaromVisibWave heightAir tempDewpointWater temp
2018-May-21 09:00N 47°18' W 002°09'0 0.0
2018-May-21 08:30N 47°18' W 002°09'0 0.2
2018-May-21 08:00N 47°18' W 002°09'0 0.9
2018-May-21 07:31N 47°18' W 002°09'3 5.6
2018-May-21 07:00N 47°16' W 002°12'0 0.0
2018-May-21 06:30N 47°16' W 002°12'0 0.0
2018-May-21 06:00N 47°16' W 002°12'0 0.0
2018-May-21 05:30N 47°16' W 002°12'0 0.0
2018-May-21 05:00N 47°16' W 002°12'0 0.0
2018-May-21 04:30N 47°16' W 002°12'0 0.0
2018-May-21 04:00N 47°16' W 002°12'0 0.0
2018-May-21 03:30N 47°16' W 002°12'0 0.0
2018-May-21 03:00N 47°16' W 002°12'0 0.0
2018-May-21 02:30N 47°16' W 002°12'0 0.0
2018-May-21 02:00N 47°16' W 002°12'0 0.0
2018-May-21 01:30N 47°16' W 002°12'0 0.0
2018-May-21 01:00N 47°16' W 002°12'0 0.0
2018-May-21 00:30N 47°16' W 002°12'0 0.0
2018-May-21 00:00N 47°16' W 002°12'0 0.0
2018-May-20 23:30N 47°16' W 002°12'0 0.0
2018-May-20 23:00N 47°16' W 002°12'0 0.0
2018-May-20 22:30N 47°16' W 002°12'0 0.0
2018-May-20 22:00N 47°16' W 002°12'0 0.0
2018-May-20 21:30N 47°16' W 002°12'0 0.0
2018-May-20 21:00N 47°16' W 002°12'0 0.0
2018-May-20 20:30N 47°16' W 002°12'0 0.0
2018-May-20 20:00N 47°16' W 002°12'0 0.0
2018-May-20 19:30N 47°16' W 002°12'0 0.0
2018-May-20 19:00N 47°16' W 002°12'0 0.0
2018-May-20 18:30N 47°16' W 002°12'0 0.0
2018-May-20 18:00N 47°16' W 002°12'0 0.0
2018-May-20 17:30N 47°16' W 002°12'0 0.0
2018-May-20 17:00N 47°16' W 002°12'0 0.0
2018-May-20 16:30N 47°16' W 002°12'0 0.0
2018-May-20 16:00N 47°16' W 002°12'2 4.8
2018-May-20 15:30N 47°18' W 002°09'2 4.6
2018-May-20 15:00N 47°18' W 002°06'1 1.1
2018-May-20 14:30N 47°18' W 002°05'2 3.4
2018-May-20 14:00N 47°18' W 002°08'3 4.7
2018-May-20 13:16N 47°16' W 002°12'0 0.0
2018-May-20 12:59N 47°16' W 002°12'0 0.0
2018-May-20 12:20N 47°16' W 002°12'0 0.0
2018-May-20 11:54N 47°16' W 002°12'0 0.0
2018-May-20 11:24N 47°16' W 002°12'0 0.0
2018-May-20 11:00N 47°16' W 002°12'0 0.0
2018-May-20 10:28N 47°16' W 002°12'0 0.0
2018-May-20 10:00N 47°16' W 002°12'0 0.0
2018-May-20 09:30N 47°16' W 002°12'0 0.0
2018-May-20 08:59N 47°16' W 002°12'0 0.0
2018-May-20 08:25N 47°16' W 002°12'0 0.0
2018-May-20 08:00N 47°16' W 002°12'3 5.2
2018-May-20 07:30N 47°18' W 002°09'1 1.4
2018-May-20 07:00N 47°18' W 002°08'0 0.2
2018-May-20 06:30N 47°18' W 002°08'0 0.4
2018-May-20 06:01N 47°18' W 002°08'2 3.7
2018-May-20 05:29N 47°17' W 002°10'2 3.3
2018-May-20 05:00N 47°16' W 002°12'0 0.0
2018-May-20 04:30N 47°16' W 002°12'0 0.0
2018-May-20 04:00N 47°16' W 002°12'0 0.0
2018-May-20 03:30N 47°16' W 002°12'0 0.0
2018-May-20 02:55N 47°16' W 002°12'0 0.0
2018-May-20 01:20N 47°16' W 002°12'0 0.0
2018-May-20 00:54N 47°16' W 002°12'0 0.0
2018-May-20 00:30N 47°16' W 002°12'0 0.0
2018-May-20 00:00N 47°16' W 002°12'0 0.0
2018-May-19 23:30N 47°16' W 002°12'0 0.0
2018-May-19 23:00N 47°16' W 002°12'0 0.0
2018-May-19 22:30N 47°16' W 002°12'0 0.0
2018-May-19 22:00N 47°16' W 002°12'0 0.0
2018-May-19 21:30N 47°16' W 002°12'0 0.0
2018-May-19 21:00N 47°16' W 002°12'0 0.0
2018-May-19 20:30N 47°16' W 002°12'0 0.0
2018-May-19 20:00N 47°16' W 002°12'0 0.0
2018-May-19 19:30N 47°16' W 002°12'0 0.0
2018-May-19 19:00N 47°16' W 002°12'0 0.0
2018-May-19 18:30N 47°16' W 002°12'4 7.2
2018-May-19 18:00N 47°18' W 002°08'0 0.1
2018-May-19 17:30N 47°18' W 002°08'1 2.9
2018-May-19 17:00N 47°17' W 002°10'2 4.4
2018-May-19 16:30N 47°16' W 002°12'0 0.1
2018-May-19 15:58N 47°16' W 002°12'0 0.0
2018-May-19 15:29N 47°16' W 002°12'0 0.0
2018-May-19 15:00N 47°16' W 002°12'0 0.0
2018-May-19 14:30N 47°16' W 002°12'0 0.0
2018-May-19 13:59N 47°16' W 002°12'0 0.0
2018-May-19 13:30N 47°16' W 002°12'0 0.0
2018-May-19 13:00N 47°16' W 002°12'0 0.0
2018-May-19 12:30N 47°16' W 002°12'0 0.0
2018-May-19 12:00N 47°16' W 002°12'0 0.0
2018-May-19 11:30N 47°16' W 002°12'0 0.0
2018-May-19 11:00N 47°16' W 002°12'0 0.0
2018-May-19 10:30N 47°16' W 002°12'0 0.0
2018-May-19 10:00N 47°16' W 002°12'0 0.0
2018-May-19 09:30N 47°16' W 002°12'0 0.0
2018-May-19 09:00N 47°16' W 002°12'0 0.0
2018-May-19 08:30N 47°16' W 002°12'0 0.0
2018-May-19 08:00N 47°16' W 002°12'0 0.0
2018-May-19 07:30N 47°16' W 002°12'0 0.0
2018-May-19 07:00N 47°16' W 002°12'0 0.0
2018-May-19 06:24N 47°16' W 002°12'0 0.0
2018-May-19 06:00N 47°16' W 002°12'0 0.0
2018-May-19 05:30N 47°16' W 002°12'0 0.0
2018-May-19 05:00N 47°16' W 002°12'0 0.0
2018-May-19 04:30N 47°16' W 002°12'0 0.0
2018-May-19 04:00N 47°16' W 002°12'0 0.0
2018-May-19 03:30N 47°16' W 002°12'0 0.0
2018-May-19 03:00N 47°16' W 002°12'0 0.0
2018-May-19 02:28N 47°16' W 002°12'0 0.0
2018-May-19 02:00N 47°16' W 002°12'0 0.0
2018-May-19 01:30N 47°16' W 002°12'0 0.0
2018-May-19 00:59N 47°16' W 002°12'0 0.0
2018-May-19 00:29N 47°16' W 002°12'0 0.0
2018-May-19 00:00N 47°16' W 002°12'0 0.0
2018-May-18 23:30N 47°16' W 002°12'0 0.0
2018-May-18 23:00N 47°16' W 002°12'0 0.0
2018-May-18 22:30N 47°16' W 002°12'0 0.0
2018-May-18 22:00N 47°16' W 002°12'0 0.0
2018-May-18 21:30N 47°16' W 002°12'0 0.0
2018-May-18 21:00N 47°16' W 002°12'0 0.0
2018-May-18 20:30N 47°16' W 002°12'0 0.5
2018-May-18 20:00N 47°16' W 002°12'1 1.2
2018-May-18 19:30N 47°17' W 002°12'1 1.2
2018-May-18 19:00N 47°16' W 002°12'0 0.8
2018-May-18 18:30N 47°16' W 002°12'1 2.3
2018-May-18 18:00N 47°15' W 002°13'1 3.1
2018-May-18 17:30N 47°14' W 002°15'3 5.5
2018-May-18 17:00N 47°16' W 002°12'0 0.1
2018-May-18 16:14N 47°16' W 002°12'0 0.0
2018-May-18 15:55N 47°16' W 002°12'0 0.7
2018-May-18 15:28N 47°16' W 002°12'0 0.1
2018-May-18 14:55N 47°16' W 002°12'0 0.5
2018-May-18 14:28N 47°17' W 002°12'0 0.4
2018-May-18 14:00N 47°17' W 002°12'0 0.0
2018-May-18 13:30N 47°17' W 002°12'0 0.1
2018-May-18 12:59N 47°17' W 002°12'0 0.1
2018-May-18 12:30N 47°17' W 002°12'0 0.9
2018-May-18 11:59N 47°16' W 002°12'0 0.0
2018-May-18 11:30N 47°16' W 002°12'0 0.0
2018-May-18 11:00N 47°16' W 002°12'0 0.0
2018-May-18 10:30N 47°16' W 002°12'0 0.0
2018-May-18 10:00N 47°16' W 002°12'0 0.0
2018-May-18 09:30N 47°16' W 002°12'0 0.0
2018-May-18 09:00N 47°16' W 002°12'0 0.0
2018-May-18 08:30N 47°16' W 002°12'0 0.0
2018-May-18 08:00N 47°16' W 002°12'0 0.0
2018-May-18 07:30N 47°16' W 002°12'0 0.0
2018-May-18 07:00N 47°16' W 002°12'0 0.0
2018-May-18 06:30N 47°16' W 002°12'0 0.0
2018-May-18 06:00N 47°16' W 002°12'0 0.0
2018-May-18 05:30N 47°16' W 002°12'0 0.0
2018-May-18 05:00N 47°16' W 002°12'0 0.0
2018-May-18 04:30N 47°16' W 002°12'0 0.0
2018-May-18 04:00N 47°16' W 002°12'0 0.0
2018-May-18 03:30N 47°16' W 002°12'0 0.0
2018-May-18 03:00N 47°16' W 002°12'0 0.0
2018-May-18 02:30N 47°16' W 002°12'0 0.0
2018-May-18 02:00N 47°16' W 002°12'0 0.0
2018-May-18 01:30N 47°16' W 002°12'0 0.0
2018-May-18 01:00N 47°16' W 002°12'0 0.0
2018-May-18 00:29N 47°16' W 002°12'0 0.0
2018-May-18 00:00N 47°16' W 002°12'0 0.0
2018-May-17 23:30N 47°16' W 002°12'0 0.0
2018-May-17 23:00N 47°16' W 002°12'0 0.0
2018-May-17 22:30N 47°16' W 002°12'0 0.0
2018-May-17 22:00N 47°16' W 002°12'0 0.0
2018-May-17 21:30N 47°16' W 002°12'0 0.0
2018-May-17 21:00N 47°16' W 002°12'0 0.0
2018-May-17 20:29N 47°16' W 002°12'0 0.0
2018-May-17 20:00N 47°16' W 002°12'0 0.0
2018-May-17 19:30N 47°16' W 002°12'0 0.0
2018-May-17 19:00N 47°16' W 002°12'0 0.0
2018-May-17 18:29N 47°16' W 002°12'0 0.1
2018-May-17 17:55N 47°16' W 002°12'3 6.2
2018-May-17 17:30N 47°18' W 002°09'3 1.2
2018-May-17 15:14N 47°16' W 002°12'0 0.0
2018-May-17 15:00N 47°16' W 002°12'0 0.0
2018-May-17 14:30N 47°16' W 002°12'0 0.0
2018-May-17 13:57N 47°16' W 002°12'0 0.0
2018-May-17 13:25N 47°16' W 002°12'0 0.0
2018-May-17 10:20N 47°16' W 002°12'0 0.0
2018-May-17 08:13N 47°16' W 002°12'0 0.0
2018-May-17 08:00N 47°16' W 002°12'0 0.0
2018-May-17 07:30N 47°16' W 002°12'0 0.3
2018-May-17 07:00N 47°16' W 002°12'3 5.8
2018-May-17 06:30N 47°18' W 002°09'0 0.0
2018-May-17 06:00N 47°18' W 002°09'0 0.0
2018-May-17 05:30N 47°18' W 002°09'0 0.0
2018-May-17 05:00N 47°18' W 002°09'0 0.0
2018-May-17 04:30N 47°18' W 002°09'0 0.0
2018-May-17 04:00N 47°18' W 002°09'0 0.0
2018-May-17 03:30N 47°18' W 002°09'0 0.0
2018-May-17 03:00N 47°18' W 002°09'0 0.0
2018-May-17 02:30N 47°18' W 002°09'0 0.0
2018-May-17 02:00N 47°18' W 002°09'0 0.0
2018-May-17 01:30N 47°18' W 002°09'0 0.0
2018-May-17 01:00N 47°18' W 002°09'0 0.0
2018-May-17 00:30N 47°18' W 002°09'0 0.0
2018-May-17 00:00N 47°18' W 002°09'0 0.0
2018-May-16 23:30N 47°18' W 002°09'0 0.0
2018-May-16 23:00N 47°18' W 002°09'0 0.0
2018-May-16 22:30N 47°18' W 002°09'0 0.0
2018-May-16 22:00N 47°18' W 002°09'0 0.0
2018-May-16 21:30N 47°18' W 002°09'0 0.0
2018-May-16 21:00N 47°18' W 002°09'0 0.0
2018-May-16 20:30N 47°18' W 002°09'0 0.0
2018-May-16 20:00N 47°18' W 002°09'0 0.0
2018-May-16 19:30N 47°18' W 002°09'0 0.0
2018-May-16 19:00N 47°18' W 002°09'0 0.0
2018-May-16 18:30N 47°18' W 002°09'0 0.0
2018-May-16 18:00N 47°18' W 002°09'0 0.2
2018-May-16 15:40N 47°18' W 002°08'1 1.2
2018-May-16 14:54N 47°18' W 002°09'0 0.2
2018-May-16 14:27N 47°18' W 002°09'0 1.1
2018-May-16 14:00N 47°18' W 002°09'0 0.0
2018-May-16 13:30N 47°18' W 002°09'0 0.0
2018-May-16 12:51N 47°18' W 002°09'0 0.0
2018-May-16 12:28N 47°18' W 002°09'0 0.0
2018-May-16 11:41N 47°18' W 002°09'0 0.0
2018-May-16 11:29N 47°18' W 002°09'0 0.0
2018-May-16 10:40N 47°18' W 002°09'3 4.1
2018-May-16 10:01N 47°18' W 002°05'0 0.0
2018-May-16 09:42N 47°18' W 002°05'0 0.0
2018-May-16 09:05N 47°18' W 002°05'0 0.0
2018-May-16 08:57N 47°18' W 002°05'0 0.0
2018-May-16 08:27N 47°18' W 002°05'0 0.0
2018-May-16 08:00N 47°18' W 002°05'0 0.0
2018-May-16 07:30N 47°18' W 002°05'0 0.0
2018-May-16 06:58N 47°18' W 002°05'0 0.0
2018-May-16 06:30N 47°18' W 002°05'0 0.0
2018-May-16 06:00N 47°18' W 002°05'0 0.0
2018-May-16 05:30N 47°18' W 002°05'0 0.3
2018-May-16 05:00N 47°18' W 002°05'0 0.3
2018-May-16 04:30N 47°18' W 002°05'1 1.1
2018-May-16 04:00N 47°18' W 002°04'1 1.5
2018-May-16 03:30N 47°18' W 002°05'510.3
2018-May-16 03:01N 47°16' W 002°12'0 0.1
2018-May-16 02:30N 47°16' W 002°12'0 0.0
2018-May-16 02:00N 47°16' W 002°12'0 0.0
2018-May-16 01:30N 47°16' W 002°12'0 0.0
2018-May-16 00:55N 47°16' W 002°12'0 0.0
2018-May-16 00:30N 47°16' W 002°12'0 0.0
2018-May-16 00:00N 47°16' W 002°12'0 0.0
2018-May-15 23:30N 47°16' W 002°12'0 0.0
2018-May-15 21:47N 47°16' W 002°12'0 0.0
2018-May-15 21:17N 47°16' W 002°12'0 0.0
2018-May-15 19:45N 47°16' W 002°12'0 0.0
2018-May-15 19:19N 47°16' W 002°12'0 0.0
2018-May-15 19:00N 47°16' W 002°12'0 0.0
2018-May-15 18:30N 47°16' W 002°12'0 0.0
2018-May-15 16:46N 47°16' W 002°12'1 0.8
2018-May-15 15:54N 47°17' W 002°12'0 0.4
2018-May-15 15:28N 47°17' W 002°12'1 1.6
2018-May-15 14:58N 47°16' W 002°12'0 0.1
2018-May-15 14:30N 47°16' W 002°12'0 0.0
2018-May-15 13:59N 47°16' W 002°12'0 0.0
2018-May-15 13:30N 47°16' W 002°12'0 0.0
2018-May-15 12:58N 47°16' W 002°12'0 0.0
2018-May-15 12:27N 47°16' W 002°12'0 0.0
2018-May-15 07:48N 47°16' W 002°12'0 0.0
2018-May-15 07:15N 47°16' W 002°12'0 0.0
2018-May-15 06:59N 47°16' W 002°12'4 7.9
2018-May-15 06:30N 47°18' W 002°07'510.4
2018-May-15 06:00N 47°17' W 001°60'613.0
2018-May-15 05:31N 47°15' W 001°51'510.9
2018-May-15 05:01N 47°12' W 001°44'5 9.5
2018-May-15 04:31N 47°12' W 001°37'0 0.4
2018-May-15 04:00N 47°12' W 001°37'0 0.5
2018-May-15 03:31N 47°12' W 001°37'0 0.1
2018-May-15 03:01N 47°12' W 001°37'0 0.0
2018-May-15 02:31N 47°12' W 001°37'0 0.0
2018-May-15 02:01N 47°12' W 001°37'0 0.0
2018-May-15 01:30N 47°12' W 001°37'0 0.0
2018-May-15 01:01N 47°12' W 001°37'4 8.0
2018-May-15 00:31N 47°12' W 001°43'611.4
2018-May-15 00:00N 47°15' W 001°51'611.6
2018-May-14 23:31N 47°17' W 001°58'5 9.5
2018-May-14 23:01N 47°18' W 002°05'2 3.4
2018-May-14 22:30N 47°18' W 002°07'0 0.2
2018-May-14 22:01N 47°18' W 002°07'0 0.0
2018-May-14 21:30N 47°18' W 002°07'4 7.5
2018-May-14 21:01N 47°16' W 002°12'0 0.2
2018-May-14 19:47N 47°16' W 002°12'0 0.0
2018-May-14 19:23N 47°16' W 002°12'0 0.0
2018-May-14 18:58N 47°16' W 002°12'0 0.0
2018-May-14 18:30N 47°16' W 002°12'0 0.0
2018-May-14 17:57N 47°16' W 002°12'0 0.0
2018-May-14 17:30N 47°16' W 002°12'0 0.0
2018-May-14 16:58N 47°16' W 002°12'0 0.0
2018-May-14 16:30N 47°16' W 002°12'0 0.0
2018-May-14 15:58N 47°16' W 002°12'0 0.0
2018-May-14 14:46N 47°16' W 002°12'0 0.0
2018-May-14 14:07N 47°16' W 002°12'0 0.1
2018-May-14 14:00N 47°16' W 002°12'0 0.0
2018-May-14 13:28N 47°16' W 002°12'0 0.0
2018-May-14 12:54N 47°16' W 002°12'0 0.0
2018-May-14 12:29N 47°16' W 002°12'0 0.0
2018-May-14 11:48N 47°16' W 002°12'0 0.0
2018-May-14 11:30N 47°16' W 002°12'0 0.0
2018-May-14 08:40N 47°16' W 002°12'0 0.0
2018-May-14 08:28N 47°16' W 002°12'0 0.0
2018-May-14 07:59N 47°16' W 002°12'0 0.0
2018-May-14 07:29N 47°16' W 002°12'0 0.0
2018-May-14 07:01N 47°16' W 002°12'0 0.0
2018-May-14 06:30N 47°16' W 002°12'0 0.0
2018-May-14 06:00N 47°16' W 002°12'0 0.0
2018-May-14 05:31N 47°16' W 002°12'0 0.5
2018-May-14 05:00N 47°16' W 002°12'5 9.5
2018-May-14 04:31N 47°18' W 002°06'0 0.0
2018-May-14 04:01N 47°18' W 002°06'0 0.1
2018-May-14 03:31N 47°18' W 002°06'0 0.7
2018-May-14 03:01N 47°18' W 002°06'3 6.1
2018-May-14 02:30N 47°17' W 002°11'1 2.7
2018-May-14 02:01N 47°16' W 002°12'0 0.0
2018-May-14 01:31N 47°16' W 002°12'0 0.0
2018-May-14 01:00N 47°16' W 002°12'0 0.0
2018-May-14 00:30N 47°16' W 002°12'0 0.0
2018-May-14 00:01N 47°16' W 002°12'0 0.0
2018-May-13 23:31N 47°16' W 002°12'0 0.0
2018-May-13 23:00N 47°16' W 002°12'0 0.0
2018-May-13 22:30N 47°16' W 002°12'0 0.0
2018-May-13 21:59N 47°16' W 002°12'0 0.0
2018-May-13 21:31N 47°16' W 002°12'0 0.0
2018-May-13 21:01N 47°16' W 002°12'3 5.2
2018-May-13 20:30N 47°18' W 002°09'0 0.1
2018-May-13 20:00N 47°18' W 002°09'3 3.1
2018-May-13 19:10N 47°16' W 002°12'0 0.0
2018-May-13 18:57N 47°16' W 002°12'0 0.0
2018-May-13 18:23N 47°16' W 002°12'0 0.0
2018-May-13 18:00N 47°16' W 002°12'0 0.0
2018-May-13 17:30N 47°16' W 002°12'0 0.0
2018-May-13 17:00N 47°16' W 002°12'0 0.0
2018-May-13 16:29N 47°16' W 002°12'3 6.1
2018-May-13 16:00N 47°18' W 002°09'3 6.1
2018-May-13 15:29N 47°18' W 002°04'1 2.4
2018-May-13 15:00N 47°18' W 002°06'1 2.1
2018-May-13 14:30N 47°18' W 002°04'0 0.2
2018-May-13 14:00N 47°18' W 002°04'1 1.1
2018-May-13 13:30N 47°18' W 002°05'0 0.1
2018-May-13 13:00N 47°18' W 002°05'3 5.2
2018-May-13 12:30N 47°18' W 002°09'0 0.7
2018-May-13 12:00N 47°18' W 002°09'3 5.1
2018-May-13 11:30N 47°16' W 002°12'0 0.0
2018-May-13 11:00N 47°16' W 002°12'0 0.0
2018-May-13 10:30N 47°16' W 002°12'0 0.0
2018-May-13 10:00N 47°16' W 002°12'0 0.0
2018-May-13 09:30N 47°16' W 002°12'0 0.0
2018-May-13 08:58N 47°16' W 002°12'0 0.0
2018-May-13 08:30N 47°16' W 002°12'0 0.0
2018-May-13 08:00N 47°16' W 002°12'0 0.0
2018-May-13 07:30N 47°16' W 002°12'0 0.0
2018-May-13 07:00N 47°16' W 002°12'0 0.0
2018-May-13 06:30N 47°16' W 002°12'0 0.0
2018-May-13 06:00N 47°16' W 002°12'0 0.0
2018-May-13 05:31N 47°16' W 002°12'0 0.0
2018-May-13 05:00N 47°16' W 002°12'0 0.0
2018-May-13 04:30N 47°16' W 002°12'0 0.0
2018-May-13 04:00N 47°16' W 002°12'0 0.0
2018-May-13 03:31N 47°16' W 002°12'0 0.0
2018-May-13 03:00N 47°16' W 002°12'0 0.0
2018-May-13 02:30N 47°16' W 002°12'0 0.0
2018-May-13 02:00N 47°16' W 002°12'0 0.0
2018-May-13 01:30N 47°16' W 002°12'0 0.0
2018-May-13 01:00N 47°16' W 002°12'0 0.0
2018-May-13 00:30N 47°16' W 002°12'0 0.0
2018-May-13 00:00N 47°16' W 002°12'0 0.0
2018-May-12 23:30N 47°16' W 002°12'0 0.0
2018-May-12 23:00N 47°16' W 002°12'0 0.0
2018-May-12 22:30N 47°16' W 002°12'0 0.0
2018-May-12 22:00N 47°16' W 002°12'0 0.0
2018-May-12 21:30N 47°16' W 002°12'0 0.0
2018-May-12 21:00N 47°16' W 002°12'0 0.0
2018-May-12 20:30N 47°16' W 002°12'0 0.0
2018-May-12 20:00N 47°16' W 002°12'0 0.0
2018-May-12 19:30N 47°16' W 002°12'0 0.0
2018-May-12 19:00N 47°16' W 002°12'0 0.0
2018-May-12 18:30N 47°16' W 002°12'0 0.0
2018-May-12 18:00N 47°16' W 002°12'0 0.0
2018-May-12 17:30N 47°16' W 002°12'0 0.0
2018-May-12 17:00N 47°16' W 002°12'0 0.0
2018-May-12 16:30N 47°16' W 002°12'0 0.0
2018-May-12 16:00N 47°16' W 002°12'0 0.0
2018-May-12 15:31N 47°16' W 002°12'0 0.0
2018-May-12 15:00N 47°16' W 002°12'0 0.0
2018-May-12 14:30N 47°16' W 002°12'0 0.0
2018-May-12 14:00N 47°16' W 002°12'0 0.0
2018-May-12 13:30N 47°16' W 002°12'0 0.0
2018-May-12 13:00N 47°16' W 002°12'0 0.0
2018-May-12 12:30N 47°16' W 002°12'0 0.0
2018-May-12 12:00N 47°16' W 002°12'0 0.7
2018-May-12 11:30N 47°16' W 002°12'0 0.1
2018-May-12 11:00N 47°16' W 002°12'0 0.0
2018-May-12 10:30N 47°16' W 002°12'0 0.0
2018-May-12 10:00N 47°16' W 002°12'0 0.0
2018-May-12 09:30N 47°16' W 002°12'0 0.0
2018-May-12 09:00N 47°16' W 002°12'0 0.0
2018-May-12 08:30N 47°16' W 002°12'0 0.0
2018-May-12 08:00N 47°16' W 002°12'0 0.0
2018-May-12 07:30N 47°16' W 002°12'0 0.0
2018-May-12 07:00N 47°16' W 002°12'0 0.0
2018-May-12 06:30N 47°16' W 002°12'0 0.0
2018-May-12 06:00N 47°16' W 002°12'0 0.0
2018-May-12 05:30N 47°16' W 002°12'0 0.0
2018-May-12 05:00N 47°16' W 002°12'0 0.0
2018-May-12 04:30N 47°16' W 002°12'0 0.0
2018-May-12 04:00N 47°16' W 002°12'0 0.0
2018-May-12 03:30N 47°16' W 002°12'0 0.0
2018-May-12 03:00N 47°16' W 002°12'0 0.0
2018-May-12 02:30N 47°16' W 002°12'0 0.0
2018-May-12 02:00N 47°16' W 002°12'0 0.0
2018-May-12 01:30N 47°16' W 002°12'0 0.0
2018-May-12 01:00N 47°16' W 002°12'0 0.0
2018-May-12 00:30N 47°16' W 002°12'0 0.0
2018-May-12 00:00N 47°16' W 002°12'0 0.0
2018-May-11 23:30N 47°16' W 002°12'0 0.0
2018-May-11 23:01N 47°16' W 002°12'0 0.0
2018-May-11 22:30N 47°16' W 002°12'0 0.0
2018-May-11 22:00N 47°16' W 002°12'0 0.0
2018-May-11 21:30N 47°16' W 002°12'0 0.0
2018-May-11 21:00N 47°16' W 002°12'0 0.0
2018-May-11 20:30N 47°16' W 002°12'0 0.0
2018-May-11 20:00N 47°16' W 002°12'0 0.0
2018-May-11 19:30N 47°16' W 002°12'0 0.0
2018-May-11 19:00N 47°16' W 002°12'0 0.0
2018-May-11 18:30N 47°16' W 002°12'0 0.0
2018-May-11 18:00N 47°16' W 002°12'0 0.0
2018-May-11 17:30N 47°16' W 002°12'0 0.0
2018-May-11 17:00N 47°16' W 002°12'0 0.0
2018-May-11 16:30N 47°16' W 002°12'0 0.0
2018-May-11 16:00N 47°16' W 002°12'0 0.0
2018-May-11 15:29N 47°16' W 002°12'0 0.0
2018-May-11 15:00N 47°16' W 002°12'0 0.8
2018-May-11 14:30N 47°17' W 002°12'0 0.1
2018-May-11 14:00N 47°17' W 002°12'0 0.8
2018-May-11 13:29N 47°16' W 002°12'0 0.0
2018-May-11 13:00N 47°16' W 002°12'0 0.0
2018-May-11 12:27N 47°16' W 002°12'0 0.0
2018-May-11 12:00N 47°16' W 002°12'0 0.0
2018-May-11 11:30N 47°16' W 002°12'0 0.0
2018-May-11 11:00N 47°16' W 002°12'0 0.0
2018-May-11 10:29N 47°16' W 002°12'0 0.0
2018-May-11 10:00N 47°16' W 002°12'0 0.0
2018-May-11 09:30N 47°16' W 002°12'  
Track history (hours):
 
Tides and Currents Weather Stations Pressure Air Temp Water Temp Dewpoint Dewpoint Depression Visibility Wind Speed Wind Dir Waves Ship Positions

Vb Ouragan

Last reported at 2018-May-21 09:00 UTC. Time now 2018-May-21 09:10 UTC.
Position N 47°18' W 002°09'.

Length 30 m; draft 5 m.

Type: Tug. MMSI: 228067800.

Date/timePositionNaut miles runAvg speedWind from/ knotsBaromVisibWave heightAir tempDewpointWater temp
2018-May-21 09:00N 47°18' W 002°09'0 0.0
2018-May-21 08:30N 47°18' W 002°09'0 0.2
2018-May-21 08:00N 47°18' W 002°09'0 0.9
2018-May-21 07:31N 47°18' W 002°09'3 5.6
2018-May-21 07:00N 47°16' W 002°12'0 0.0
2018-May-21 06:30N 47°16' W 002°12'0 0.0
2018-May-21 06:00N 47°16' W 002°12'0 0.0
2018-May-21 05:30N 47°16' W 002°12'0 0.0
2018-May-21 05:00N 47°16' W 002°12'0 0.0
2018-May-21 04:30N 47°16' W 002°12'0 0.0
2018-May-21 04:00N 47°16' W 002°12'0 0.0
2018-May-21 03:30N 47°16' W 002°12'0 0.0
2018-May-21 03:00N 47°16' W 002°12'0 0.0
2018-May-21 02:30N 47°16' W 002°12'0 0.0
2018-May-21 02:00N 47°16' W 002°12'0 0.0
2018-May-21 01:30N 47°16' W 002°12'0 0.0
2018-May-21 01:00N 47°16' W 002°12'0 0.0
2018-May-21 00:30N 47°16' W 002°12'0 0.0
2018-May-21 00:00N 47°16' W 002°12'0 0.0
2018-May-20 23:30N 47°16' W 002°12'0 0.0
2018-May-20 23:00N 47°16' W 002°12'0 0.0
2018-May-20 22:30N 47°16' W 002°12'0 0.0
2018-May-20 22:00N 47°16' W 002°12'0 0.0
2018-May-20 21:30N 47°16' W 002°12'0 0.0
2018-May-20 21:00N 47°16' W 002°12'0 0.0
2018-May-20 20:30N 47°16' W 002°12'0 0.0
2018-May-20 20:00N 47°16' W 002°12'0 0.0
2018-May-20 19:30N 47°16' W 002°12'0 0.0
2018-May-20 19:00N 47°16' W 002°12'0 0.0
2018-May-20 18:30N 47°16' W 002°12'0 0.0
2018-May-20 18:00N 47°16' W 002°12'0 0.0
2018-May-20 17:30N 47°16' W 002°12'0 0.0
2018-May-20 17:00N 47°16' W 002°12'0 0.0
2018-May-20 16:30N 47°16' W 002°12'0 0.0
2018-May-20 16:00N 47°16' W 002°12'2 4.8
2018-May-20 15:30N 47°18' W 002°09'2 4.6
2018-May-20 15:00N 47°18' W 002°06'1 1.1
2018-May-20 14:30N 47°18' W 002°05'2 3.4
2018-May-20 14:00N 47°18' W 002°08'3 4.7
2018-May-20 13:16N 47°16' W 002°12'0 0.0
2018-May-20 12:59N 47°16' W 002°12'0 0.0
2018-May-20 12:20N 47°16' W 002°12'0 0.0
2018-May-20 11:54N 47°16' W 002°12'0 0.0
2018-May-20 11:24N 47°16' W 002°12'0 0.0
2018-May-20 11:00N 47°16' W 002°12'0 0.0
2018-May-20 10:28N 47°16' W 002°12'0 0.0
2018-May-20 10:00N 47°16' W 002°12'0 0.0
2018-May-20 09:30N 47°16' W 002°12'0 0.0
2018-May-20 08:59N 47°16' W 002°12'0 0.0
2018-May-20 08:25N 47°16' W 002°12'0 0.0
2018-May-20 08:00N 47°16' W 002°12'3 5.2
2018-May-20 07:30N 47°18' W 002°09'1 1.4
2018-May-20 07:00N 47°18' W 002°08'0 0.2
2018-May-20 06:30N 47°18' W 002°08'0 0.4
2018-May-20 06:01N 47°18' W 002°08'2 3.7
2018-May-20 05:29N 47°17' W 002°10'2 3.3
2018-May-20 05:00N 47°16' W 002°12'0 0.0
2018-May-20 04:30N 47°16' W 002°12'0 0.0
2018-May-20 04:00N 47°16' W 002°12'0 0.0
2018-May-20 03:30N 47°16' W 002°12'0 0.0
2018-May-20 02:55N 47°16' W 002°12'0 0.0
2018-May-20 01:20N 47°16' W 002°12'0 0.0
2018-May-20 00:54N 47°16' W 002°12'0 0.0
2018-May-20 00:30N 47°16' W 002°12'0 0.0
2018-May-20 00:00N 47°16' W 002°12'0 0.0
2018-May-19 23:30N 47°16' W 002°12'0 0.0
2018-May-19 23:00N 47°16' W 002°12'0 0.0
2018-May-19 22:30N 47°16' W 002°12'0 0.0
2018-May-19 22:00N 47°16' W 002°12'0 0.0
2018-May-19 21:30N 47°16' W 002°12'0 0.0
2018-May-19 21:00N 47°16' W 002°12'0 0.0
2018-May-19 20:30N 47°16' W 002°12'0 0.0
2018-May-19 20:00N 47°16' W 002°12'0 0.0
2018-May-19 19:30N 47°16' W 002°12'0 0.0
2018-May-19 19:00N 47°16' W 002°12'0 0.0
2018-May-19 18:30N 47°16' W 002°12'4 7.2
2018-May-19 18:00N 47°18' W 002°08'0 0.1
2018-May-19 17:30N 47°18' W 002°08'1 2.9
2018-May-19 17:00N 47°17' W 002°10'2 4.4
2018-May-19 16:30N 47°16' W 002°12'0 0.1
2018-May-19 15:58N 47°16' W 002°12'0 0.0
2018-May-19 15:29N 47°16' W 002°12'0 0.0
2018-May-19 15:00N 47°16' W 002°12'0 0.0
2018-May-19 14:30N 47°16' W 002°12'0 0.0
2018-May-19 13:59N 47°16' W 002°12'0 0.0
2018-May-19 13:30N 47°16' W 002°12'0 0.0
2018-May-19 13:00N 47°16' W 002°12'0 0.0
2018-May-19 12:30N 47°16' W 002°12'0 0.0
2018-May-19 12:00N 47°16' W 002°12'0 0.0
2018-May-19 11:30N 47°16' W 002°12'0 0.0
2018-May-19 11:00N 47°16' W 002°12'0 0.0
2018-May-19 10:30N 47°16' W 002°12'0 0.0
2018-May-19 10:00N 47°16' W 002°12'0 0.0
2018-May-19 09:30N 47°16' W 002°12'0 0.0
2018-May-19 09:00N 47°16' W 002°12'0 0.0
2018-May-19 08:30N 47°16' W 002°12'0 0.0
2018-May-19 08:00N 47°16' W 002°12'0 0.0
2018-May-19 07:30N 47°16' W 002°12'0 0.0
2018-May-19 07:00N 47°16' W 002°12'0 0.0
2018-May-19 06:24N 47°16' W 002°12'0 0.0
2018-May-19 06:00N 47°16' W 002°12'0 0.0
2018-May-19 05:30N 47°16' W 002°12'0 0.0
2018-May-19 05:00N 47°16' W 002°12'0 0.0
2018-May-19 04:30N 47°16' W 002°12'0 0.0
2018-May-19 04:00N 47°16' W 002°12'0 0.0
2018-May-19 03:30N 47°16' W 002°12'0 0.0
2018-May-19 03:00N 47°16' W 002°12'0 0.0
2018-May-19 02:28N 47°16' W 002°12'0 0.0
2018-May-19 02:00N 47°16' W 002°12'0 0.0
2018-May-19 01:30N 47°16' W 002°12'0 0.0
2018-May-19 00:59N 47°16' W 002°12'0 0.0
2018-May-19 00:29N 47°16' W 002°12'0 0.0
2018-May-19 00:00N 47°16' W 002°12'0 0.0
2018-May-18 23:30N 47°16' W 002°12'0 0.0
2018-May-18 23:00N 47°16' W 002°12'0 0.0
2018-May-18 22:30N 47°16' W 002°12'0 0.0
2018-May-18 22:00N 47°16' W 002°12'0 0.0
2018-May-18 21:30N 47°16' W 002°12'0 0.0
2018-May-18 21:00N 47°16' W 002°12'0 0.0
2018-May-18 20:30N 47°16' W 002°12'0 0.5
2018-May-18 20:00N 47°16' W 002°12'1 1.2
2018-May-18 19:30N 47°17' W 002°12'1 1.2
2018-May-18 19:00N 47°16' W 002°12'0 0.8
2018-May-18 18:30N 47°16' W 002°12'1 2.3
2018-May-18 18:00N 47°15' W 002°13'1 3.1
2018-May-18 17:30N 47°14' W 002°15'3 5.5
2018-May-18 17:00N 47°16' W 002°12'0 0.1
2018-May-18 16:14N 47°16' W 002°12'0 0.0
2018-May-18 15:55N 47°16' W 002°12'0 0.7
2018-May-18 15:28N 47°16' W 002°12'0 0.1
2018-May-18 14:55N 47°16' W 002°12'0 0.5
2018-May-18 14:28N 47°17' W 002°12'0 0.4
2018-May-18 14:00N 47°17' W 002°12'0 0.0
2018-May-18 13:30N 47°17' W 002°12'0 0.1
2018-May-18 12:59N 47°17' W 002°12'0 0.1
2018-May-18 12:30N 47°17' W 002°12'0 0.9
2018-May-18 11:59N 47°16' W 002°12'0 0.0
2018-May-18 11:30N 47°16' W 002°12'0 0.0
2018-May-18 11:00N 47°16' W 002°12'0 0.0
2018-May-18 10:30N 47°16' W 002°12'0 0.0
2018-May-18 10:00N 47°16' W 002°12'0 0.0
2018-May-18 09:30N 47°16' W 002°12'0 0.0
2018-May-18 09:00N 47°16' W 002°12'0 0.0
2018-May-18 08:30N 47°16' W 002°12'0 0.0
2018-May-18 08:00N 47°16' W 002°12'0 0.0
2018-May-18 07:30N 47°16' W 002°12'0 0.0
2018-May-18 07:00N 47°16' W 002°12'0 0.0
2018-May-18 06:30N 47°16' W 002°12'0 0.0
2018-May-18 06:00N 47°16' W 002°12'0 0.0
2018-May-18 05:30N 47°16' W 002°12'0 0.0
2018-May-18 05:00N 47°16' W 002°12'0 0.0
2018-May-18 04:30N 47°16' W 002°12'0 0.0
2018-May-18 04:00N 47°16' W 002°12'0 0.0
2018-May-18 03:30N 47°16' W 002°12'0 0.0
2018-May-18 03:00N 47°16' W 002°12'0 0.0
2018-May-18 02:30N 47°16' W 002°12'0 0.0
2018-May-18 02:00N 47°16' W 002°12'0 0.0
2018-May-18 01:30N 47°16' W 002°12'0 0.0
2018-May-18 01:00N 47°16' W 002°12'0 0.0
2018-May-18 00:29N 47°16' W 002°12'0 0.0
2018-May-18 00:00N 47°16' W 002°12'0 0.0
2018-May-17 23:30N 47°16' W 002°12'0 0.0
2018-May-17 23:00N 47°16' W 002°12'0 0.0
2018-May-17 22:30N 47°16' W 002°12'0 0.0
2018-May-17 22:00N 47°16' W 002°12'0 0.0
2018-May-17 21:30N 47°16' W 002°12'0 0.0
2018-May-17 21:00N 47°16' W 002°12'0 0.0
2018-May-17 20:29N 47°16' W 002°12'0 0.0
2018-May-17 20:00N 47°16' W 002°12'0 0.0
2018-May-17 19:30N 47°16' W 002°12'0 0.0
2018-May-17 19:00N 47°16' W 002°12'0 0.0
2018-May-17 18:29N 47°16' W 002°12'0 0.1
2018-May-17 17:55N 47°16' W 002°12'3 6.2
2018-May-17 17:30N 47°18' W 002°09'3 1.2
2018-May-17 15:14N 47°16' W 002°12'0 0.0
2018-May-17 15:00N 47°16' W 002°12'0 0.0
2018-May-17 14:30N 47°16' W 002°12'0 0.0
2018-May-17 13:57N 47°16' W 002°12'0 0.0
2018-May-17 13:25N 47°16' W 002°12'0 0.0
2018-May-17 10:20N 47°16' W 002°12'0 0.0
2018-May-17 08:13N 47°16' W 002°12'0 0.0
2018-May-17 08:00N 47°16' W 002°12'0 0.0
2018-May-17 07:30N 47°16' W 002°12'0 0.3
2018-May-17 07:00N 47°16' W 002°12'3 5.8
2018-May-17 06:30N 47°18' W 002°09'0 0.0
2018-May-17 06:00N 47°18' W 002°09'0 0.0
2018-May-17 05:30N 47°18' W 002°09'0 0.0
2018-May-17 05:00N 47°18' W 002°09'0 0.0
2018-May-17 04:30N 47°18' W 002°09'0 0.0
2018-May-17 04:00N 47°18' W 002°09'0 0.0
2018-May-17 03:30N 47°18' W 002°09'0 0.0
2018-May-17 03:00N 47°18' W 002°09'0 0.0
2018-May-17 02:30N 47°18' W 002°09'0 0.0
2018-May-17 02:00N 47°18' W 002°09'0 0.0
2018-May-17 01:30N 47°18' W 002°09'0 0.0
2018-May-17 01:00N 47°18' W 002°09'0 0.0
2018-May-17 00:30N 47°18' W 002°09'0 0.0
2018-May-17 00:00N 47°18' W 002°09'0 0.0
2018-May-16 23:30N 47°18' W 002°09'0 0.0
2018-May-16 23:00N 47°18' W 002°09'0 0.0
2018-May-16 22:30N 47°18' W 002°09'0 0.0
2018-May-16 22:00N 47°18' W 002°09'0 0.0
2018-May-16 21:30N 47°18' W 002°09'0 0.0
2018-May-16 21:00N 47°18' W 002°09'0 0.0
2018-May-16 20:30N 47°18' W 002°09'0 0.0
2018-May-16 20:00N 47°18' W 002°09'0 0.0
2018-May-16 19:30N 47°18' W 002°09'0 0.0
2018-May-16 19:00N 47°18' W 002°09'0 0.0
2018-May-16 18:30N 47°18' W 002°09'0 0.0
2018-May-16 18:00N 47°18' W 002°09'0 0.2
2018-May-16 15:40N 47°18' W 002°08'1 1.2
2018-May-16 14:54N 47°18' W 002°09'0 0.2
2018-May-16 14:27N 47°18' W 002°09'0 1.1
2018-May-16 14:00N 47°18' W 002°09'0 0.0
2018-May-16 13:30N 47°18' W 002°09'0 0.0
2018-May-16 12:51N 47°18' W 002°09'0 0.0
2018-May-16 12:28N 47°18' W 002°09'0 0.0
2018-May-16 11:41N 47°18' W 002°09'0 0.0
2018-May-16 11:29N 47°18' W 002°09'0 0.0
2018-May-16 10:40N 47°18' W 002°09'3 4.1
2018-May-16 10:01N 47°18' W 002°05'0 0.0
2018-May-16 09:42N 47°18' W 002°05'0 0.0
2018-May-16 09:05N 47°18' W 002°05'0 0.0
2018-May-16 08:57N 47°18' W 002°05'0 0.0
2018-May-16 08:27N 47°18' W 002°05'0 0.0
2018-May-16 08:00N 47°18' W 002°05'0 0.0
2018-May-16 07:30N 47°18' W 002°05'0 0.0
2018-May-16 06:58N 47°18' W 002°05'0 0.0
2018-May-16 06:30N 47°18' W 002°05'0 0.0
2018-May-16 06:00N 47°18' W 002°05'0 0.0
2018-May-16 05:30N 47°18' W 002°05'0 0.3
2018-May-16 05:00N 47°18' W 002°05'0 0.3
2018-May-16 04:30N 47°18' W 002°05'1 1.1
2018-May-16 04:00N 47°18' W 002°04'1 1.5
2018-May-16 03:30N 47°18' W 002°05'510.3
2018-May-16 03:01N 47°16' W 002°12'0 0.1
2018-May-16 02:30N 47°16' W 002°12'0 0.0
2018-May-16 02:00N 47°16' W 002°12'0 0.0
2018-May-16 01:30N 47°16' W 002°12'0 0.0
2018-May-16 00:55N 47°16' W 002°12'0 0.0
2018-May-16 00:30N 47°16' W 002°12'0 0.0
2018-May-16 00:00N 47°16' W 002°12'0 0.0
2018-May-15 23:30N 47°16' W 002°12'0 0.0
2018-May-15 21:47N 47°16' W 002°12'0 0.0
2018-May-15 21:17N 47°16' W 002°12'0 0.0
2018-May-15 19:45N 47°16' W 002°12'0 0.0
2018-May-15 19:19N 47°16' W 002°12'0 0.0
2018-May-15 19:00N 47°16' W 002°12'0 0.0
2018-May-15 18:30N 47°16' W 002°12'0 0.0
2018-May-15 16:46N 47°16' W 002°12'1 0.8
2018-May-15 15:54N 47°17' W 002°12'0 0.4
2018-May-15 15:28N 47°17' W 002°12'1 1.6
2018-May-15 14:58N 47°16' W 002°12'0 0.1
2018-May-15 14:30N 47°16' W 002°12'0 0.0
2018-May-15 13:59N 47°16' W 002°12'0 0.0
2018-May-15 13:30N 47°16' W 002°12'0 0.0
2018-May-15 12:58N 47°16' W 002°12'0 0.0
2018-May-15 12:27N 47°16' W 002°12'0 0.0
2018-May-15 07:48N 47°16' W 002°12'0 0.0
2018-May-15 07:15N 47°16' W 002°12'0 0.0
2018-May-15 06:59N 47°16' W 002°12'4 7.9
2018-May-15 06:30N 47°18' W 002°07'510.4
2018-May-15 06:00N 47°17' W 001°60'613.0
2018-May-15 05:31N 47°15' W 001°51'510.9
2018-May-15 05:01N 47°12' W 001°44'5 9.5
2018-May-15 04:31N 47°12' W 001°37'0 0.4
2018-May-15 04:00N 47°12' W 001°37'0 0.5
2018-May-15 03:31N 47°12' W 001°37'0 0.1
2018-May-15 03:01N 47°12' W 001°37'0 0.0
2018-May-15 02:31N 47°12' W 001°37'0 0.0
2018-May-15 02:01N 47°12' W 001°37'0 0.0
2018-May-15 01:30N 47°12' W 001°37'0 0.0
2018-May-15 01:01N 47°12' W 001°37'4 8.0
2018-May-15 00:31N 47°12' W 001°43'611.4
2018-May-15 00:00N 47°15' W 001°51'611.6
2018-May-14 23:31N 47°17' W 001°58'5 9.5
2018-May-14 23:01N 47°18' W 002°05'2 3.4
2018-May-14 22:30N 47°18' W 002°07'0 0.2
2018-May-14 22:01N 47°18' W 002°07'0 0.0
2018-May-14 21:30N 47°18' W 002°07'4 7.5
2018-May-14 21:01N 47°16' W 002°12'0 0.2
2018-May-14 19:47N 47°16' W 002°12'0 0.0
2018-May-14 19:23N 47°16' W 002°12'0 0.0
2018-May-14 18:58N 47°16' W 002°12'0 0.0
2018-May-14 18:30N 47°16' W 002°12'0 0.0
2018-May-14 17:57N 47°16' W 002°12'0 0.0
2018-May-14 17:30N 47°16' W 002°12'0 0.0
2018-May-14 16:58N 47°16' W 002°12'0 0.0
2018-May-14 16:30N 47°16' W 002°12'0 0.0
2018-May-14 15:58N 47°16' W 002°12'0 0.0
2018-May-14 14:46N 47°16' W 002°12'0 0.0
2018-May-14 14:07N 47°16' W 002°12'0 0.1
2018-May-14 14:00N 47°16' W 002°12'0 0.0
2018-May-14 13:28N 47°16' W 002°12'0 0.0
2018-May-14 12:54N 47°16' W 002°12'0 0.0
2018-May-14 12:29N 47°16' W 002°12'0 0.0
2018-May-14 11:48N 47°16' W 002°12'0 0.0
2018-May-14 11:30N 47°16' W 002°12'0 0.0
2018-May-14 08:40N 47°16' W 002°12'0 0.0
2018-May-14 08:28N 47°16' W 002°12'0 0.0
2018-May-14 07:59N 47°16' W 002°12'0 0.0
2018-May-14 07:29N 47°16' W 002°12'0 0.0
2018-May-14 07:01N 47°16' W 002°12'0 0.0
2018-May-14 06:30N 47°16' W 002°12'0 0.0
2018-May-14 06:00N 47°16' W 002°12'0 0.0
2018-May-14 05:31N 47°16' W 002°12'0 0.5
2018-May-14 05:00N 47°16' W 002°12'5 9.5
2018-May-14 04:31N 47°18' W 002°06'0 0.0
2018-May-14 04:01N 47°18' W 002°06'0 0.1
2018-May-14 03:31N 47°18' W 002°06'0 0.7
2018-May-14 03:01N 47°18' W 002°06'3 6.1
2018-May-14 02:30N 47°17' W 002°11'1 2.7
2018-May-14 02:01N 47°16' W 002°12'0 0.0
2018-May-14 01:31N 47°16' W 002°12'0 0.0
2018-May-14 01:00N 47°16' W 002°12'0 0.0
2018-May-14 00:30N 47°16' W 002°12'0 0.0
2018-May-14 00:01N 47°16' W 002°12'0 0.0
2018-May-13 23:31N 47°16' W 002°12'0 0.0
2018-May-13 23:00N 47°16' W 002°12'0 0.0
2018-May-13 22:30N 47°16' W 002°12'0 0.0
2018-May-13 21:59N 47°16' W 002°12'0 0.0
2018-May-13 21:31N 47°16' W 002°12'0 0.0
2018-May-13 21:01N 47°16' W 002°12'3 5.2
2018-May-13 20:30N 47°18' W 002°09'0 0.1
2018-May-13 20:00N 47°18' W 002°09'3 3.1
2018-May-13 19:10N 47°16' W 002°12'0 0.0
2018-May-13 18:57N 47°16' W 002°12'0 0.0
2018-May-13 18:23N 47°16' W 002°12'0 0.0
2018-May-13 18:00N 47°16' W 002°12'0 0.0
2018-May-13 17:30N 47°16' W 002°12'0 0.0
2018-May-13 17:00N 47°16' W 002°12'0 0.0
2018-May-13 16:29N 47°16' W 002°12'3 6.1
2018-May-13 16:00N 47°18' W 002°09'3 6.1
2018-May-13 15:29N 47°18' W 002°04'1 2.4
2018-May-13 15:00N 47°18' W 002°06'1 2.1
2018-May-13 14:30N 47°18' W 002°04'0 0.2
2018-May-13 14:00N 47°18' W 002°04'1 1.1
2018-May-13 13:30N 47°18' W 002°05'0 0.1
2018-May-13 13:00N 47°18' W 002°05'3 5.2
2018-May-13 12:30N 47°18' W 002°09'0 0.7
2018-May-13 12:00N 47°18' W 002°09'3 5.1
2018-May-13 11:30N 47°16' W 002°12'0 0.0
2018-May-13 11:00N 47°16' W 002°12'0 0.0
2018-May-13 10:30N 47°16' W 002°12'0 0.0
2018-May-13 10:00N 47°16' W 002°12'0 0.0
2018-May-13 09:30N 47°16' W 002°12'0 0.0
2018-May-13 08:58N 47°16' W 002°12'0 0.0
2018-May-13 08:30N 47°16' W 002°12'0 0.0
2018-May-13 08:00N 47°16' W 002°12'0 0.0
2018-May-13 07:30N 47°16' W 002°12'0 0.0
2018-May-13 07:00N 47°16' W 002°12'0 0.0
2018-May-13 06:30N 47°16' W 002°12'0 0.0
2018-May-13 06:00N 47°16' W 002°12'0 0.0
2018-May-13 05:31N 47°16' W 002°12'0 0.0
2018-May-13 05:00N 47°16' W 002°12'0 0.0
2018-May-13 04:30N 47°16' W 002°12'0 0.0
2018-May-13 04:00N 47°16' W 002°12'0 0.0
2018-May-13 03:31N 47°16' W 002°12'0 0.0
2018-May-13 03:00N 47°16' W 002°12'0 0.0
2018-May-13 02:30N 47°16' W 002°12'0 0.0
2018-May-13 02:00N 47°16' W 002°12'0 0.0
2018-May-13 01:30N 47°16' W 002°12'0 0.0
2018-May-13 01:00N 47°16' W 002°12'0 0.0
2018-May-13 00:30N 47°16' W 002°12'0 0.0
2018-May-13 00:00N 47°16' W 002°12'0 0.0
2018-May-12 23:30N 47°16' W 002°12'0 0.0
2018-May-12 23:00N 47°16' W 002°12'0 0.0
2018-May-12 22:30N 47°16' W 002°12'0 0.0
2018-May-12 22:00N 47°16' W 002°12'0 0.0
2018-May-12 21:30N 47°16' W 002°12'0 0.0
2018-May-12 21:00N 47°16' W 002°12'0 0.0
2018-May-12 20:30N 47°16' W 002°12'0 0.0
2018-May-12 20:00N 47°16' W 002°12'0 0.0
2018-May-12 19:30N 47°16' W 002°12'0 0.0
2018-May-12 19:00N 47°16' W 002°12'0 0.0
2018-May-12 18:30N 47°16' W 002°12'0 0.0
2018-May-12 18:00N 47°16' W 002°12'0 0.0
2018-May-12 17:30N 47°16' W 002°12'0 0.0
2018-May-12 17:00N 47°16' W 002°12'0 0.0
2018-May-12 16:30N 47°16' W 002°12'0 0.0
2018-May-12 16:00N 47°16' W 002°12'0 0.0
2018-May-12 15:31N 47°16' W 002°12'0 0.0
2018-May-12 15:00N 47°16' W 002°12'0 0.0
2018-May-12 14:30N 47°16' W 002°12'0 0.0
2018-May-12 14:00N 47°16' W 002°12'0 0.0
2018-May-12 13:30N 47°16' W 002°12'0 0.0
2018-May-12 13:00N 47°16' W 002°12'0 0.0
2018-May-12 12:30N 47°16' W 002°12'0 0.0
2018-May-12 12:00N 47°16' W 002°12'0 0.7
2018-May-12 11:30N 47°16' W 002°12'0 0.1
2018-May-12 11:00N 47°16' W 002°12'0 0.0
2018-May-12 10:30N 47°16' W 002°12'0 0.0
2018-May-12 10:00N 47°16' W 002°12'0 0.0
2018-May-12 09:30N 47°16' W 002°12'0 0.0
2018-May-12 09:00N 47°16' W 002°12'0 0.0
2018-May-12 08:30N 47°16' W 002°12'0 0.0
2018-May-12 08:00N 47°16' W 002°12'0 0.0
2018-May-12 07:30N 47°16' W 002°12'0 0.0
2018-May-12 07:00N 47°16' W 002°12'0 0.0
2018-May-12 06:30N 47°16' W 002°12'0 0.0
2018-May-12 06:00N 47°16' W 002°12'0 0.0
2018-May-12 05:30N 47°16' W 002°12'0 0.0
2018-May-12 05:00N 47°16' W 002°12'0 0.0
2018-May-12 04:30N 47°16' W 002°12'0 0.0
2018-May-12 04:00N 47°16' W 002°12'0 0.0
2018-May-12 03:30N 47°16' W 002°12'0 0.0
2018-May-12 03:00N 47°16' W 002°12'0 0.0
2018-May-12 02:30N 47°16' W 002°12'0 0.0
2018-May-12 02:00N 47°16' W 002°12'0 0.0
2018-May-12 01:30N 47°16' W 002°12'0 0.0
2018-May-12 01:00N 47°16' W 002°12'0 0.0
2018-May-12 00:30N 47°16' W 002°12'0 0.0
2018-May-12 00:00N 47°16' W 002°12'0 0.0
2018-May-11 23:30N 47°16' W 002°12'0 0.0
2018-May-11 23:01N 47°16' W 002°12'0 0.0
2018-May-11 22:30N 47°16' W 002°12'0 0.0
2018-May-11 22:00N 47°16' W 002°12'0 0.0
2018-May-11 21:30N 47°16' W 002°12'0 0.0
2018-May-11 21:00N 47°16' W 002°12'0 0.0
2018-May-11 20:30N 47°16' W 002°12'0 0.0
2018-May-11 20:00N 47°16' W 002°12'0 0.0
2018-May-11 19:30N 47°16' W 002°12'0 0.0
2018-May-11 19:00N 47°16' W 002°12'0 0.0
2018-May-11 18:30N 47°16' W 002°12'0 0.0
2018-May-11 18:00N 47°16' W 002°12'0 0.0
2018-May-11 17:30N 47°16' W 002°12'0 0.0
2018-May-11 17:00N 47°16' W 002°12'0 0.0
2018-May-11 16:30N 47°16' W 002°12'0 0.0
2018-May-11 16:00N 47°16' W 002°12'0 0.0
2018-May-11 15:29N 47°16' W 002°12'0 0.0
2018-May-11 15:00N 47°16' W 002°12'0 0.8
2018-May-11 14:30N 47°17' W 002°12'0 0.1
2018-May-11 14:00N 47°17' W 002°12'0 0.8
2018-May-11 13:29N 47°16' W 002°12'0 0.0
2018-May-11 13:00N 47°16' W 002°12'0 0.0
2018-May-11 12:27N 47°16' W 002°12'0 0.0
2018-May-11 12:00N 47°16' W 002°12'0 0.0
2018-May-11 11:30N 47°16' W 002°12'0 0.0
2018-May-11 11:00N 47°16' W 002°12'0 0.0
2018-May-11 10:29N 47°16' W 002°12'0 0.0
2018-May-11 10:00N 47°16' W 002°12'0 0.0
2018-May-11 09:30N 47°16' W 002°12'  

Dump ship's entire track history